Weather at Alexandria Aerodrome

Public forecast

Using degrees Celsius for public forecast. Weather courtesy of forecast.io.

Closest aviation weather report (METAR) to Alexandria Aerodrome

Closest report is Massena International Richards Field, 25.5 nm (47.2 km) SSW. Retrieved 2020/11/29 02:53 UTC (54 minutes ago):

KMSS 290253Z AUTO 23007KT 10SM CLR 03/M01 A2997 RMK AO2 SLP152 T00331011 53001

Closest aviation forecast (TAF) to Alexandria Aerodrome

Closest forecast is Massena International Richards Field, 25.5 nm (47.2 km) SSW. Retrieved 2020-11-29 00:22 UTC (3 hours ago):

TAF KMSS 282320Z 2900/2924 24007KT P6SM OVC060 FM291200 22005KT P6SM SCT025 SCT200 FM291800 21008KT P6SM SCT035 SCT200